createdAt,value
2023-02-09T00:00:05.915Z,32.65
2023-02-09T00:02:40.900Z,38.33
2023-02-09T00:05:08.832Z,31.98
2023-02-09T00:07:36.122Z,29.25
2023-02-09T00:10:04.332Z,31.42
2023-02-09T00:12:49.851Z,32.17
2023-02-09T00:15:16.702Z,31.05
2023-02-09T00:17:43.551Z,27.63
2023-02-09T00:20:10.887Z,30.98
2023-02-09T00:22:37.740Z,27.33
2023-02-09T00:25:04.785Z,28.00
2023-02-09T00:27:35.368Z,24.98
2023-02-09T00:30:04.317Z,27.40
2023-02-09T00:32:33.111Z,26.17
2023-02-09T00:35:00.211Z,26.40
2023-02-09T00:37:28.281Z,33.33
2023-02-09T00:39:55.160Z,24.88
2023-02-09T00:42:22.049Z,28.02
2023-02-09T00:44:49.989Z,29.38
2023-02-09T00:47:17.468Z,28.08
2023-02-09T00:49:44.812Z,32.28
2023-02-09T00:52:11.802Z,30.90
2023-02-09T00:54:39.291Z,25.80
2023-02-09T00:57:06.210Z,26.77
2023-02-09T00:59:35.794Z,28.50
2023-02-09T01:02:03.460Z,24.33
2023-02-09T01:04:30.511Z,27.80
2023-02-09T01:06:57.502Z,30.67
2023-02-09T01:09:25.188Z,30.33
2023-02-09T01:11:52.038Z,27.17
2023-02-09T01:14:18.975Z,31.80
2023-02-09T01:16:45.842Z,28.33
2023-02-09T01:19:14.293Z,26.80
2023-02-09T01:21:42.166Z,26.73
2023-02-09T01:24:13.086Z,27.35
2023-02-09T01:26:40.083Z,31.05
2023-02-09T01:29:07.068Z,31.83
2023-02-09T01:31:35.881Z,31.60
2023-02-09T01:34:04.071Z,28.50
2023-02-09T01:36:32.213Z,27.08
2023-02-09T01:39:01.271Z,27.42
2023-02-09T01:41:28.890Z,30.02
2023-02-09T01:44:04.917Z,27.98
2023-02-09T01:46:34.493Z,29.70
2023-02-09T01:49:22.151Z,24.63
2023-02-09T01:51:59.934Z,28.77
2023-02-09T01:54:34.340Z,28.30
2023-02-09T01:57:09.953Z,27.10
2023-02-09T01:59:40.194Z,26.27
2023-02-09T02:02:08.697Z,28.30
2023-02-09T02:04:36.876Z,28.02
2023-02-09T02:07:12.570Z,28.45
2023-02-09T02:09:40.073Z,36.85
2023-02-09T02:12:07.135Z,34.80
2023-02-09T02:14:37.769Z,26.73
2023-02-09T02:17:24.613Z,24.48
2023-02-09T02:19:51.407Z,29.27
2023-02-09T02:22:36.449Z,28.55
2023-02-09T02:25:21.930Z,30.83
2023-02-09T02:28:23.623Z,28.85
2023-02-09T02:31:17.969Z,31.10
2023-02-09T02:33:48.402Z,29.52
2023-02-09T02:36:27.272Z,31.98
2023-02-09T02:39:18.089Z,25.20
2023-02-09T02:42:35.055Z,33.90
2023-02-09T02:45:11.139Z,27.27
2023-02-09T02:47:42.416Z,30.05
2023-02-09T02:50:14.989Z,28.13
2023-02-09T02:52:46.185Z,23.90
2023-02-09T02:55:17.099Z,29.30
2023-02-09T02:57:48.449Z,29.58
2023-02-09T03:00:31.950Z,29.13
2023-02-09T03:03:13.832Z,31.90
2023-02-09T03:05:42.750Z,30.00
2023-02-09T03:08:09.720Z,34.08
2023-02-09T03:10:39.764Z,28.70
2023-02-09T03:13:08.035Z,27.88
2023-02-09T03:16:05.591Z,25.90
2023-02-09T03:18:43.540Z,34.38
2023-02-09T03:21:43.555Z,25.75
2023-02-09T03:24:24.935Z,32.85
2023-02-09T03:27:00.876Z,32.72
2023-02-09T03:29:28.729Z,31.63
2023-02-09T03:31:56.207Z,25.30
2023-02-09T03:34:23.105Z,30.67
2023-02-09T03:36:53.786Z,28.70
2023-02-09T03:39:20.630Z,29.20
2023-02-09T03:41:47.629Z,29.95
2023-02-09T03:44:27.286Z,29.70
2023-02-09T03:47:08.462Z,29.52
2023-02-09T03:49:39.326Z,29.33
2023-02-09T03:52:11.488Z,28.92
2023-02-09T03:54:38.491Z,35.65
2023-02-09T03:57:06.516Z,34.08
2023-02-09T03:59:37.579Z,31.00
2023-02-09T04:02:07.496Z,30.02
2023-02-09T04:04:34.562Z,30.73
2023-02-09T04:07:01.554Z,29.65
2023-02-09T04:09:28.854Z,29.95
2023-02-09T04:11:56.300Z,30.75
2023-02-09T04:14:23.268Z,28.85
2023-02-09T04:16:50.203Z,31.40
2023-02-09T04:19:17.052Z,27.13
2023-02-09T04:21:44.481Z,28.08
2023-02-09T04:24:11.937Z,34.75
2023-02-09T04:26:38.845Z,28.85
2023-02-09T04:29:06.116Z,26.55
2023-02-09T04:31:34.874Z,30.70
2023-02-09T04:34:01.969Z,26.60
2023-02-09T04:36:29.145Z,29.48
2023-02-09T04:38:56.231Z,28.13
2023-02-09T04:41:23.228Z,31.85
2023-02-09T04:43:50.228Z,25.73
2023-02-09T04:46:18.383Z,30.38
2023-02-09T04:48:46.165Z,28.60
2023-02-09T04:51:13.831Z,26.98
2023-02-09T04:53:40.763Z,26.58
2023-02-09T04:56:08.446Z,26.15
2023-02-09T04:58:54.191Z,28.13
2023-02-09T05:01:23.924Z,25.05
2023-02-09T05:03:51.474Z,34.17
2023-02-09T05:06:19.234Z,23.63
2023-02-09T05:08:46.387Z,26.33
2023-02-09T05:11:13.352Z,23.90
2023-02-09T05:13:40.339Z,27.65
2023-02-09T05:16:08.467Z,27.88
2023-02-09T05:18:35.874Z,25.38
2023-02-09T05:21:03.331Z,25.90
2023-02-09T05:23:30.553Z,24.38
2023-02-09T05:25:57.587Z,24.77
2023-02-09T05:28:25.260Z,26.85
2023-02-09T05:30:54.026Z,23.60
2023-02-09T05:33:25.676Z,24.73
2023-02-09T05:35:55.808Z,24.10
2023-02-09T05:40:49.902Z,30.80
2023-02-09T05:43:17.214Z,29.63
2023-02-09T05:45:45.015Z,23.00
2023-02-09T05:48:12.313Z,23.92
2023-02-09T05:50:39.579Z,26.23
2023-02-09T05:53:09.628Z,22.85
2023-02-09T05:55:37.045Z,28.55
2023-02-09T05:58:04.018Z,32.80
2023-02-09T06:00:31.313Z,25.77
2023-02-09T06:02:58.790Z,28.08
2023-02-09T06:05:26.454Z,26.73
2023-02-09T06:07:53.956Z,26.40
2023-02-09T06:10:21.003Z,26.90
2023-02-09T06:12:48.261Z,23.33
2023-02-09T06:15:18.741Z,23.67
2023-02-09T06:17:46.494Z,25.55
2023-02-09T06:20:13.530Z,23.23
2023-02-09T06:22:40.579Z,25.60
2023-02-09T06:25:07.808Z,24.48
2023-02-09T06:27:34.738Z,23.33
2023-02-09T06:30:02.040Z,27.80
2023-02-09T06:32:28.917Z,23.45
2023-02-09T06:34:56.351Z,24.58
2023-02-09T06:37:23.424Z,23.52
2023-02-09T06:39:50.650Z,20.75
2023-02-09T06:42:17.573Z,25.55
2023-02-09T06:44:44.533Z,21.50
2023-02-09T06:47:11.426Z,25.83
2023-02-09T06:49:38.288Z,26.75
2023-02-09T06:52:05.613Z,33.65
2023-02-09T06:54:32.768Z,22.35
2023-02-09T06:56:59.777Z,25.48
2023-02-09T06:59:26.651Z,25.52
2023-02-09T07:01:54.984Z,27.98
2023-02-09T07:04:22.435Z,22.48
2023-02-09T07:06:49.396Z,24.92
2023-02-09T07:09:16.243Z,28.27
2023-02-09T07:11:43.813Z,31.83
2023-02-09T07:14:10.870Z,36.10
2023-02-09T07:16:37.740Z,28.08
2023-02-09T07:19:04.808Z,26.38
2023-02-09T07:21:31.702Z,30.63
2023-02-09T07:23:58.590Z,25.77
2023-02-09T07:26:25.632Z,25.17
2023-02-09T07:28:52.887Z,28.25
2023-02-09T07:31:19.941Z,29.90
2023-02-09T07:33:47.124Z,34.50
2023-02-09T07:36:15.537Z,27.50
2023-02-09T07:38:42.838Z,22.98
2023-02-09T07:41:51.184Z,23.65
2023-02-09T07:48:06.738Z,32.40
2023-02-09T07:50:33.555Z,22.83
2023-02-09T07:53:00.893Z,20.55
2023-02-09T07:55:27.940Z,24.42
2023-02-09T07:57:55.519Z,24.27
2023-02-09T08:00:22.567Z,27.17
2023-02-09T08:02:50.115Z,19.70
2023-02-09T08:05:58.327Z,28.60
2023-02-09T08:08:25.259Z,23.55
2023-02-09T08:10:54.678Z,22.98
2023-02-09T08:13:22.201Z,26.23
2023-02-09T08:15:55.607Z,21.75
2023-02-09T08:18:27.841Z,25.15
2023-02-09T08:20:55.062Z,24.85
2023-02-09T08:23:34.229Z,24.90
2023-02-09T08:26:06.836Z,21.40
2023-02-09T08:28:43.606Z,25.85
2023-02-09T08:31:11.945Z,27.00
2023-02-09T08:33:38.891Z,21.75
2023-02-09T08:36:06.152Z,22.98
2023-02-09T08:38:34.794Z,23.73
2023-02-09T08:41:06.591Z,24.02
2023-02-09T08:43:33.732Z,22.73
2023-02-09T08:46:05.838Z,21.77
2023-02-09T08:48:35.829Z,18.48
2023-02-09T08:51:03.456Z,19.88
2023-02-09T08:53:30.997Z,21.75
2023-02-09T08:55:57.928Z,29.73
2023-02-09T08:58:25.473Z,23.67
2023-02-09T09:00:59.925Z,23.65
2023-02-09T09:03:30.095Z,22.58
2023-02-09T09:06:02.242Z,20.35
2023-02-09T09:08:30.154Z,22.30
2023-02-09T09:10:57.316Z,18.50
2023-02-09T09:13:24.916Z,22.10
2023-02-09T09:15:54.039Z,19.27
2023-02-09T09:18:21.677Z,22.17
2023-02-09T09:20:49.299Z,25.30
2023-02-09T09:23:16.170Z,25.23
2023-02-09T09:25:43.346Z,21.50
2023-02-09T09:28:10.879Z,22.25
2023-02-09T09:30:38.633Z,18.83
2023-02-09T09:33:05.577Z,19.98
2023-02-09T09:35:32.542Z,22.35
2023-02-09T09:38:00.858Z,22.73
2023-02-09T09:40:31.661Z,23.70
2023-02-09T09:43:01.253Z,23.92
2023-02-09T09:45:30.224Z,22.60
2023-02-09T09:47:57.423Z,21.77
2023-02-09T09:50:38.305Z,18.13
2023-02-09T09:53:18.286Z,19.17
2023-02-09T09:55:46.202Z,23.45
2023-02-09T09:58:18.925Z,21.58
2023-02-09T10:00:45.961Z,27.33
2023-02-09T10:03:21.804Z,22.38
2023-02-09T10:05:55.407Z,19.58
2023-02-09T10:08:34.336Z,22.70
2023-02-09T10:11:04.781Z,21.92
2023-02-09T10:13:39.896Z,28.23
2023-02-09T10:16:21.264Z,23.30
2023-02-09T10:19:21.572Z,21.52
2023-02-09T10:21:49.150Z,21.15
2023-02-09T10:24:21.345Z,19.85
2023-02-09T10:27:05.423Z,22.58
2023-02-09T10:29:32.347Z,20.30
2023-02-09T10:32:09.379Z,23.30
2023-02-09T10:34:40.962Z,26.83
2023-02-09T10:37:34.689Z,17.58
2023-02-09T10:40:19.386Z,19.85
2023-02-09T10:42:54.113Z,23.80
2023-02-09T10:45:28.503Z,22.23
2023-02-09T10:48:19.809Z,19.38
2023-02-09T10:50:59.097Z,18.45
2023-02-09T10:53:31.346Z,23.35
2023-02-09T10:56:17.951Z,21.52
2023-02-09T10:59:02.911Z,22.40
2023-02-09T11:01:34.637Z,19.80
2023-02-09T11:04:03.229Z,21.52
2023-02-09T11:07:01.733Z,22.75
2023-02-09T11:09:33.616Z,25.52
2023-02-09T11:12:01.012Z,20.00
2023-02-09T11:14:28.762Z,20.73
2023-02-09T11:17:14.563Z,22.08
2023-02-09T11:20:05.984Z,19.33
2023-02-09T11:22:54.171Z,18.60
2023-02-09T11:25:59.152Z,19.63
2023-02-09T11:28:39.316Z,22.48
2023-02-09T11:31:41.201Z,24.30
2023-02-09T11:34:26.317Z,19.55
2023-02-09T11:36:58.873Z,19.33
2023-02-09T11:39:43.453Z,21.25
2023-02-09T11:42:37.763Z,21.48
2023-02-09T11:45:17.620Z,21.10
2023-02-09T11:48:10.104Z,22.10
2023-02-09T11:50:55.510Z,21.02
2023-02-09T11:53:28.472Z,21.35
2023-02-09T11:56:02.102Z,26.00
2023-02-09T11:58:55.332Z,20.33
2023-02-09T12:01:46.424Z,21.70
2023-02-09T12:04:45.359Z,24.17
2023-02-09T12:10:04.869Z,21.65
2023-02-09T12:15:26.918Z,21.48
2023-02-09T12:17:58.991Z,22.75
2023-02-09T12:20:28.049Z,19.55
2023-02-09T12:23:26.068Z,20.95
2023-02-09T12:25:53.100Z,17.67
2023-02-09T12:28:35.188Z,20.25
2023-02-09T12:31:05.005Z,21.98
2023-02-09T12:33:34.133Z,19.67
2023-02-09T12:36:14.522Z,22.67
2023-02-09T12:38:56.599Z,18.58
2023-02-09T12:41:29.876Z,19.23
2023-02-09T12:49:27.645Z,20.92
2023-02-09T12:52:00.369Z,20.67
2023-02-09T12:55:08.281Z,22.20
2023-02-09T12:57:51.280Z,23.13
2023-02-09T13:00:18.872Z,22.90
2023-02-09T13:02:56.591Z,21.70
2023-02-09T13:05:26.422Z,19.90
2023-02-09T13:08:18.380Z,23.30
2023-02-09T13:11:00.773Z,21.75
2023-02-09T13:13:48.237Z,21.98
2023-02-09T13:16:24.404Z,23.17
2023-02-09T13:19:00.390Z,24.48
2023-02-09T13:22:03.260Z,19.02
2023-02-09T13:24:44.154Z,19.08
2023-02-09T13:27:25.662Z,21.50
2023-02-09T13:29:58.142Z,17.92
2023-02-09T13:32:35.122Z,19.77
2023-02-09T13:35:29.135Z,18.80
2023-02-09T13:38:00.194Z,19.58
2023-02-09T13:40:33.611Z,22.50
2023-02-09T13:43:17.332Z,19.85
2023-02-09T13:45:53.261Z,19.85
2023-02-09T13:48:32.286Z,19.20
2023-02-09T13:51:02.515Z,22.13
2023-02-09T13:53:31.590Z,19.15
2023-02-09T13:56:00.515Z,20.13
2023-02-09T13:58:36.133Z,25.00
2023-02-09T14:01:14.472Z,22.30
2023-02-09T14:03:58.987Z,18.17
2023-02-09T14:06:50.932Z,23.27
2023-02-09T14:09:26.473Z,24.65
2023-02-09T14:11:58.299Z,18.80
2023-02-09T14:14:28.299Z,16.70
2023-02-09T14:17:25.317Z,20.15
2023-02-09T14:19:54.081Z,19.80
2023-02-09T14:22:33.874Z,21.27
2023-02-09T14:25:01.140Z,20.08
2023-02-09T14:27:32.993Z,20.52
2023-02-09T14:30:01.323Z,18.67
2023-02-09T14:32:35.152Z,20.30
2023-02-09T14:35:26.009Z,24.55
2023-02-09T14:37:54.965Z,19.13
2023-02-09T14:40:24.689Z,19.98
2023-02-09T14:43:25.001Z,19.20
2023-02-09T14:46:00.997Z,21.70
2023-02-09T14:48:29.660Z,20.77
2023-02-09T14:50:59.677Z,22.77
2023-02-09T14:53:30.017Z,19.25
2023-02-09T14:55:58.060Z,22.20
2023-02-09T14:58:28.187Z,24.23
2023-02-09T15:00:57.797Z,22.58
2023-02-09T15:03:24.748Z,23.08
2023-02-09T15:05:55.825Z,24.38
2023-02-09T15:08:25.668Z,25.53
2023-02-09T15:10:56.439Z,31.93
2023-02-09T15:13:23.865Z,26.50
2023-02-09T15:15:50.795Z,27.60
2023-02-09T15:18:26.869Z,25.33
2023-02-09T15:20:54.314Z,22.48
2023-02-09T15:23:21.509Z,25.77
2023-02-09T15:25:48.744Z,26.10
2023-02-09T15:28:28.468Z,23.30
2023-02-09T15:30:57.426Z,26.08
2023-02-09T15:33:28.760Z,23.42
2023-02-09T15:35:59.208Z,25.45
2023-02-09T15:38:27.683Z,23.45
2023-02-09T15:41:13.415Z,25.10
2023-02-09T15:43:58.954Z,23.42
2023-02-09T15:46:44.727Z,27.23
2023-02-09T15:49:13.320Z,26.30
2023-02-09T15:51:41.123Z,22.80
2023-02-09T15:54:20.509Z,28.23
2023-02-09T15:56:47.998Z,25.30
2023-02-09T15:59:23.022Z,26.90
2023-02-09T16:01:50.740Z,25.63
2023-02-09T16:04:18.169Z,25.35
2023-02-09T16:06:50.634Z,23.55
2023-02-09T16:09:29.023Z,23.63
2023-02-09T16:11:56.249Z,26.37
2023-02-09T16:14:25.358Z,24.00
2023-02-09T16:16:52.939Z,23.63
2023-02-09T16:19:20.618Z,26.25
2023-02-09T16:21:51.371Z,24.92
2023-02-09T16:24:27.043Z,26.00
2023-02-09T16:26:54.029Z,26.50
2023-02-09T16:29:20.985Z,29.30
2023-02-09T16:31:48.816Z,25.98
2023-02-09T16:34:15.841Z,24.50
2023-02-09T16:36:43.264Z,32.60
2023-02-09T16:39:21.269Z,36.20
2023-02-09T16:41:50.782Z,29.55
2023-02-09T16:44:26.406Z,27.27
2023-02-09T16:46:55.390Z,29.98
2023-02-09T16:49:43.882Z,27.60
2023-02-09T16:52:16.095Z,29.50
2023-02-09T16:54:52.735Z,26.67
2023-02-09T16:57:23.138Z,24.83
2023-02-09T16:59:51.269Z,26.10
2023-02-09T17:02:34.948Z,27.77
2023-02-09T17:05:08.134Z,27.40
2023-02-09T17:07:52.303Z,28.13
2023-02-09T17:10:23.377Z,32.15
2023-02-09T17:12:53.471Z,35.42
2023-02-09T17:15:30.079Z,35.45
2023-02-09T17:18:05.374Z,35.10
2023-02-09T17:20:37.779Z,34.90
2023-02-09T17:23:04.780Z,34.88
2023-02-09T17:25:31.901Z,38.75
2023-02-09T17:27:59.290Z,39.33
2023-02-09T17:30:26.235Z,39.90
2023-02-09T17:33:00.282Z,36.08
2023-02-09T17:35:52.907Z,36.92
2023-02-09T17:38:31.528Z,32.58
2023-02-09T17:41:01.558Z,37.40
2023-02-09T17:43:28.988Z,35.45
2023-02-09T17:45:56.297Z,34.22
2023-02-09T17:48:23.664Z,32.08
2023-02-09T17:50:52.976Z,31.92
2023-02-09T17:53:25.776Z,32.47
2023-02-09T17:55:54.172Z,29.98
2023-02-09T17:58:21.067Z,38.17
2023-02-09T18:00:48.127Z,36.15
2023-02-09T18:03:17.836Z,36.45
2023-02-09T18:05:49.039Z,37.58
2023-02-09T18:08:15.961Z,36.42
2023-02-09T18:10:43.339Z,34.97
2023-02-09T18:13:17.232Z,34.50
2023-02-09T18:15:44.903Z,38.05
2023-02-09T18:18:11.917Z,36.72
2023-02-09T18:20:38.817Z,37.67
2023-02-09T18:23:05.821Z,34.88
2023-02-09T18:25:39.598Z,35.00
2023-02-09T18:28:07.744Z,37.15
2023-02-09T18:30:39.455Z,39.90
2023-02-09T18:33:07.295Z,34.65
2023-02-09T18:35:36.604Z,34.78
2023-02-09T18:38:05.627Z,36.10
2023-02-09T18:40:32.764Z,35.92
2023-02-09T18:43:01.243Z,36.30
2023-02-09T18:45:30.530Z,41.65
2023-02-09T18:47:58.038Z,47.10
2023-02-09T18:50:28.244Z,42.70
2023-02-09T18:52:58.278Z,41.33
2023-02-09T18:55:29.313Z,44.13
2023-02-09T18:58:01.261Z,45.58
2023-02-09T19:00:28.796Z,38.38
2023-02-09T19:03:00.094Z,37.20
2023-02-09T19:05:29.567Z,34.42
2023-02-09T19:07:57.118Z,31.42
2023-02-09T19:10:24.108Z,31.35
2023-02-09T19:12:51.572Z,33.93
2023-02-09T19:15:22.492Z,33.47
2023-02-09T19:17:49.680Z,31.63
2023-02-09T19:20:19.443Z,31.92
2023-02-09T19:22:53.560Z,32.38
2023-02-09T19:25:24.643Z,35.40
2023-02-09T19:27:53.291Z,36.10
2023-02-09T19:30:24.866Z,36.22
2023-02-09T19:32:53.278Z,36.35
2023-02-09T19:35:22.570Z,35.85
2023-02-09T19:37:58.098Z,38.63
2023-02-09T19:40:36.052Z,42.30
2023-02-09T19:43:04.667Z,51.85
2023-02-09T19:45:36.610Z,49.85
2023-02-09T19:48:07.907Z,53.83
2023-02-09T19:50:39.164Z,51.33
2023-02-09T19:53:07.374Z,45.28
2023-02-09T19:55:34.361Z,48.97
2023-02-09T19:58:01.290Z,47.05
2023-02-09T20:00:28.200Z,43.15
2023-02-09T20:02:55.231Z,44.75
2023-02-09T20:05:22.097Z,42.97
2023-02-09T20:07:49.169Z,45.10
2023-02-09T20:10:16.028Z,41.83
2023-02-09T20:15:14.815Z,40.03
2023-02-09T20:17:41.862Z,37.10
2023-02-09T20:20:09.058Z,34.47
2023-02-09T20:22:36.812Z,36.08
2023-02-09T20:25:04.494Z,32.92
2023-02-09T20:27:31.423Z,35.40
2023-02-09T20:30:01.401Z,34.53
2023-02-09T20:32:29.120Z,33.27
2023-02-09T20:34:56.467Z,32.55
2023-02-09T20:37:23.302Z,36.13
2023-02-09T20:39:50.532Z,33.58
2023-02-09T20:42:36.300Z,33.30
2023-02-09T20:45:21.844Z,35.83
2023-02-09T20:47:48.752Z,35.40
2023-02-09T20:50:17.814Z,36.63
2023-02-09T20:52:45.831Z,34.85
2023-02-09T20:55:13.278Z,32.95
2023-02-09T20:57:40.215Z,33.92
2023-02-09T21:00:09.562Z,34.55
2023-02-09T21:02:37.798Z,34.40
2023-02-09T21:05:05.431Z,34.45
2023-02-09T21:07:33.583Z,39.60
2023-02-09T21:10:00.706Z,44.67
2023-02-09T21:12:27.904Z,40.65
2023-02-09T21:14:56.532Z,38.85
2023-02-09T21:17:23.860Z,35.63
2023-02-09T21:19:50.793Z,38.05
2023-02-09T21:22:17.710Z,36.17
2023-02-09T21:24:45.068Z,37.65
2023-02-09T21:27:13.391Z,37.22
2023-02-09T21:29:40.484Z,37.47
2023-02-09T21:32:08.028Z,35.55
2023-02-09T21:34:35.872Z,35.03
2023-02-09T21:37:02.890Z,36.60
2023-02-09T21:39:30.119Z,36.85
2023-02-09T21:42:15.525Z,38.07
2023-02-09T21:44:42.421Z,34.15
2023-02-09T21:47:10.557Z,34.83
2023-02-09T21:49:37.392Z,35.38
2023-02-09T21:52:04.890Z,35.42
2023-02-09T21:54:33.788Z,38.78
2023-02-09T21:57:01.790Z,32.70
2023-02-09T21:59:29.530Z,33.70
2023-02-09T22:01:56.518Z,34.50
2023-02-09T22:04:23.735Z,39.85
2023-02-09T22:06:50.735Z,41.83
2023-02-09T22:09:20.040Z,34.70
2023-02-09T22:11:46.920Z,36.85
2023-02-09T22:14:13.878Z,35.85
2023-02-09T22:16:40.804Z,33.47
2023-02-09T22:19:07.806Z,36.00
2023-02-09T22:21:34.740Z,38.27
2023-02-09T22:24:01.625Z,34.78
2023-02-09T22:26:28.447Z,36.00
2023-02-09T22:28:55.291Z,34.70
2023-02-09T22:31:22.489Z,37.67
2023-02-09T22:33:54.080Z,35.17
2023-02-09T22:36:21.784Z,34.53
2023-02-09T22:38:48.793Z,37.50
2023-02-09T22:41:21.948Z,38.88
2023-02-09T22:43:50.747Z,33.53
2023-02-09T22:46:18.106Z,34.03
2023-02-09T22:48:49.413Z,38.03
2023-02-09T22:51:17.716Z,34.43
2023-02-09T22:53:45.200Z,34.47
2023-02-09T22:56:12.772Z,33.58
2023-02-09T22:58:40.424Z,37.17
2023-02-09T23:01:07.684Z,38.25
2023-02-09T23:03:34.608Z,37.72
2023-02-09T23:06:07.325Z,36.90
2023-02-09T23:08:34.488Z,34.50
2023-02-09T23:11:10.022Z,33.15
2023-02-09T23:13:37.567Z,32.67
2023-02-09T23:16:08.745Z,34.95
2023-02-09T23:18:36.061Z,37.30
2023-02-09T23:21:04.587Z,35.08
2023-02-09T23:23:31.593Z,36.63
2023-02-09T23:25:58.425Z,39.00
2023-02-09T23:28:25.590Z,42.03
2023-02-09T23:30:52.442Z,44.05
2023-02-09T23:33:19.452Z,44.50
2023-02-09T23:35:46.496Z,42.60
2023-02-09T23:38:13.525Z,42.45
2023-02-09T23:40:41.093Z,45.28
2023-02-09T23:43:07.914Z,40.77
2023-02-09T23:45:34.759Z,41.97
2023-02-09T23:48:01.724Z,44.47
2023-02-09T23:50:28.558Z,47.10
2023-02-09T23:52:55.444Z,43.10
2023-02-09T23:55:22.340Z,44.55
2023-02-09T23:57:49.180Z,45.60
